TimeEDT,TemperatureF,Dew PointF,Humidity,Sea Level PressureIn,VisibilityMPH,Wind Direction,Wind SpeedMPH,Gust SpeedMPH,PrecipitationIn,Events,Conditions,WindDirDegrees,DateUTC
12:49 AM,33.8,30.2,87,29.62,10.0,WSW,10.4,-,N/A,,Overcast,240,2013-03-19 04:49:00
12:53 AM,34.0,30.0,85,29.65,10.0,WSW,10.4,-,N/A,,Overcast,240,2013-03-19 04:53:00
1:22 AM,33.8,30.2,87,29.61,10.0,SW,9.2,-,N/A,,Overcast,230,2013-03-19 05:22:00
1:33 AM,33.8,30.2,87,29.61,10.0,SW,10.4,-,N/A,,Overcast,230,2013-03-19 05:33:00
1:53 AM,35.1,28.9,78,29.63,10.0,WSW,9.2,-,N/A,,Overcast,240,2013-03-19 05:53:00
2:53 AM,30.9,23.0,72,29.67,10.0,West,19.6,29.9,0.00,,Overcast,280,2013-03-19 06:53:00
3:53 AM,28.0,19.0,69,29.69,10.0,WSW,25.3,31.1,N/A,,Overcast,250,2013-03-19 07:53:00
4:53 AM,26.1,17.1,69,29.72,10.0,West,20.7,28.8,N/A,,Overcast,270,2013-03-19 08:53:00
5:53 AM,25.0,18.0,75,29.73,5.0,West,18.4,23.0,0.00,Snow,Light Snow,260,2013-03-19 09:53:00
6:28 AM,24.8,15.8,69,29.71,9.0,West,21.9,28.8,0.00,,Overcast,260,2013-03-19 10:28:00
6:53 AM,24.1,15.1,69,29.75,10.0,WSW,17.3,25.3,0.00,,Overcast,240,2013-03-19 10:53:00
7:53 AM,24.1,15.1,69,29.77,6.0,WSW,16.1,25.3,0.00,Snow,Light Snow,240,2013-03-19 11:53:00
8:29 AM,23.0,15.8,74,29.74,3.0,WSW,13.8,26.5,0.00,Snow,Light Snow,240,2013-03-19 12:29:00
8:53 AM,23.0,15.1,72,29.77,4.0,WSW,17.3,25.3,0.00,Snow,Light Snow,240,2013-03-19 12:53:00
9:06 AM,23.0,14.0,68,29.74,9.0,WSW,21.9,28.8,0.00,,Overcast,250,2013-03-19 13:06:00
9:46 AM,24.8,17.6,74,29.74,3.0,WSW,18.4,24.2,0.00,Snow,Light Snow,240,2013-03-19 13:46:00
9:53 AM,23.0,16.0,74,29.77,3.0,WSW,17.3,24.2,0.00,Snow,Light Snow,250,2013-03-19 13:53:00
10:23 AM,24.8,14.0,64,29.74,9.0,West,23.0,31.1,0.00,,Overcast,260,2013-03-19 14:23:00
10:40 AM,24.8,15.8,69,29.75,2.5,WSW,21.9,29.9,0.00,Snow,Light Snow,250,2013-03-19 14:40:00
10:53 AM,24.1,14.0,65,29.78,9.0,West,18.4,26.5,0.00,,Overcast,260,2013-03-19 14:53:00
11:31 AM,24.8,12.2,59,29.76,8.0,West,23.0,33.4,0.00,Snow,Light Snow,260,2013-03-19 15:31:00
11:44 AM,24.8,12.2,59,29.76,10.0,WSW,24.2,32.2,0.00,,Overcast,250,2013-03-19 15:44:00
11:53 AM,25.0,12.9,60,29.80,10.0,West,20.7,32.2,0.00,,Overcast,260,2013-03-19 15:53:00
12:53 PM,25.0,14.0,63,29.81,7.0,West,23.0,31.1,0.00,Snow,Light Snow,260,2013-03-19 16:53:00
1:38 PM,24.8,15.8,69,29.79,9.0,WSW,20.7,34.5,0.00,Snow,Light Snow,250,2013-03-19 17:38:00
1:53 PM,26.1,12.9,58,29.83,9.0,West,24.2,34.5,0.00,Snow,Light Snow,260,2013-03-19 17:53:00
2:45 PM,24.8,15.8,69,29.81,4.0,WSW,21.9,32.2,0.00,Snow,Light Snow,250,2013-03-19 18:45:00
2:53 PM,25.0,14.0,63,29.85,7.0,West,21.9,33.4,0.00,Snow,Light Snow,260,2013-03-19 18:53:00
3:04 PM,24.8,14.0,64,29.81,8.0,WSW,25.3,34.5,0.00,Snow,Light Snow,250,2013-03-19 19:04:00
3:11 PM,24.8,15.8,69,29.82,8.0,West,23.0,34.5,0.00,Snow,Light Snow,260,2013-03-19 19:11:00
3:53 PM,27.0,15.1,61,29.86,9.0,WSW,25.3,38.0,0.00,Snow,Light Snow,250,2013-03-19 19:53:00
4:53 PM,27.0,16.0,63,29.87,9.0,West,18.4,33.4,0.00,Snow,Light Snow,260,2013-03-19 20:53:00
5:53 PM,28.0,16.0,61,29.89,10.0,West,18.4,32.2,0.00,,Overcast,270,2013-03-19 21:53:00
6:53 PM,28.0,16.0,61,29.91,10.0,West,18.4,26.5,N/A,,Overcast,280,2013-03-19 22:53:00
7:53 PM,28.0,16.0,61,29.93,10.0,West,17.3,-,N/A,,Overcast,280,2013-03-19 23:53:00
8:53 PM,27.0,15.1,61,29.95,10.0,West,17.3,27.6,N/A,,Mostly Cloudy,270,2013-03-20 00:53:00
9:53 PM,27.0,14.0,58,29.96,10.0,West,17.3,24.2,N/A,,Partly Cloudy,280,2013-03-20 01:53:00
10:53 PM,27.0,14.0,58,29.96,10.0,West,15.0,23.0,N/A,,Scattered Clouds,270,2013-03-20 02:53:00
11:53 PM,27.0,14.0,58,29.96,10.0,West,12.7,23.0,N/A,,Mostly Cloudy,280,2013-03-20 03:53:00